Time;durP1;ratioP1;P1;durP2;ratioP2;P2;SDS_P1;SDS_P2;PMS_P1;PMS_P2;Temp;Humidity;BMP_temperature;BMP_pressure;BME280_temperature;BME280_humidity;BME280_pressure;Samples;Min_cycle;Max_cycle;Signal;HPM_P1;HPM_P2
2022/05/15 00:02:37;;;;;;;4.43;2.00;;;;;;;15.38;54.03;99003.78;4484539;32;20100;-71
2022/05/15 00:05:05;;;;;;;4.37;1.75;;;;;;;15.35;54.10;99003.25;4485681;31;20135;-71
2022/05/15 00:07:32;;;;;;;1.80;1.42;;;;;;;15.28;54.62;99013.66;4485860;32;20092;-71
2022/05/15 00:10:00;;;;;;;2.78;2.00;;;;;;;15.34;54.26;99013.00;4485511;31;20100;-71
2022/05/15 00:12:27;;;;;;;2.92;2.03;;;;;;;15.34;54.31;99005.09;4485669;31;20141;-71
2022/05/15 00:14:54;;;;;;;2.50;1.77;;;;;;;15.33;54.53;99005.25;4485598;32;20159;-71
2022/05/15 00:17:21;;;;;;;7.43;2.92;;;;;;;15.23;54.99;99013.28;4485700;31;20510;-71
2022/05/15 00:19:49;;;;;;;3.17;1.70;;;;;;;15.12;55.52;99014.41;4485663;31;20112;-71
2022/05/15 00:22:16;;;;;;;3.85;1.80;;;;;;;14.90;56.47;99011.38;4485323;31;20119;-71
2022/05/15 00:24:43;;;;;;;3.35;1.90;;;;;;;14.69;57.41;99013.59;4485521;31;20103;-71
2022/05/15 00:27:11;;;;;;;3.03;2.10;;;;;;;14.64;57.77;99008.81;4485955;31;20127;-71
2022/05/15 00:29:38;;;;;;;5.05;1.90;;;;;;;14.55;58.10;99007.09;4485779;31;20101;-71
2022/05/15 00:32:06;;;;;;;6.70;2.28;;;;;;;14.52;58.21;99002.13;4485652;31;20085;-71
2022/05/15 00:34:33;;;;;;;2.72;2.00;;;;;;;14.51;58.10;98996.00;4485623;32;20126;-71
2022/05/15 00:37:00;;;;;;;3.75;2.22;;;;;;;14.53;58.10;98998.50;4485428;31;20100;-71
2022/05/15 00:39:28;;;;;;;3.28;2.22;;;;;;;14.49;58.17;99002.44;4485611;31;20096;-71
2022/05/15 00:41:55;;;;;;;18.37;3.00;;;;;;;14.46;58.14;98990.41;4485414;31;20115;-71
2022/05/15 00:44:23;;;;;;;5.28;2.35;;;;;;;14.46;58.00;98995.66;4485317;31;20436;-71
2022/05/15 00:46:50;;;;;;;3.35;2.20;;;;;;;14.50;57.88;98998.81;4485556;31;20457;-71
2022/05/15 00:49:17;;;;;;;8.20;2.25;;;;;;;14.49;58.05;98997.16;4485430;31;20092;-71
2022/05/15 00:52:01;;;;;;;2.87;1.95;;;;;;;14.46;58.26;99002.72;4485548;31;20088;-71
2022/05/15 00:54:49;;;;;;;3.35;2.00;;;;;;;14.40;58.63;98992.81;4484450;32;20084;-71
2022/05/15 00:57:20;;;;;;;4.00;2.00;;;;;;;14.35;58.54;98994.13;4485394;31;20442;-71
2022/05/15 00:59:57;;;;;;;3.78;2.00;;;;;;;14.32;58.85;98985.69;4484206;32;20153;-71
2022/05/15 01:02:28;;;;;;;3.90;2.28;;;;;;;14.28;58.98;98982.53;4485881;31;20184;-71
2022/05/15 01:04:55;;;;;;;4.22;2.28;;;;;;;14.22;59.02;98980.53;4484206;32;20428;-71
2022/05/15 01:07:22;;;;;;;4.22;2.00;;;;;;;14.26;58.72;98981.88;4484623;31;20092;-71
2022/05/15 01:09:50;;;;;;;5.45;2.05;;;;;;;14.31;58.58;98976.16;4485530;31;20111;-71
2022/05/15 01:12:18;;;;;;;7.20;2.20;;;;;;;14.28;58.52;98984.38;4485570;31;20500;-71
2022/05/15 01:14:46;;;;;;;6.65;1.95;;;;;;;14.19;58.90;98976.38;4485302;32;20114;-71
2022/05/15 01:17:14;;;;;;;5.00;2.05;;;;;;;14.26;58.62;98981.88;4485587;31;20104;-71
2022/05/15 01:19:43;;;;;;;4.82;1.80;;;;;;;14.33;58.35;98977.63;4485788;31;20119;-71
2022/05/15 01:22:14;;;;;;;5.35;2.30;;;;;;;14.31;58.38;98974.31;4485127;31;20116;-71
2022/05/15 01:24:43;;;;;;;6.82;2.20;;;;;;;14.33;58.39;98982.06;4485452;31;20490;-71
2022/05/15 01:27:12;;;;;;;9.93;2.58;;;;;;;14.36;58.27;98981.75;4485469;31;20442;-71
2022/05/15 01:29:44;;;;;;;3.55;1.85;;;;;;;14.33;58.59;98984.72;4485021;32;20092;-71
2022/05/15 01:32:12;;;;;;;2.65;1.90;;;;;;;14.32;58.57;98977.78;4485284;31;20446;-71
2022/05/15 01:34:40;;;;;;;2.05;1.77;;;;;;;14.31;58.70;98982.22;4471068;32;20115;-71
2022/05/15 01:37:08;;;;;;;4.22;2.08;;;;;;;14.26;58.78;98981.88;4485523;32;20104;-71
2022/05/15 01:39:36;;;;;;;3.47;1.77;;;;;;;14.20;59.08;98982.47;4485247;31;20091;-71
2022/05/15 01:42:04;;;;;;;3.60;1.40;;;;;;;14.19;59.26;98983.47;4485112;31;20080;-71
2022/05/15 01:44:32;;;;;;;2.83;1.95;;;;;;;14.14;59.34;98988.37;4485186;31;20096;-71
2022/05/15 01:46:59;;;;;;;4.70;1.87;;;;;;;14.19;59.26;98991.38;4485275;31;20100;-71
2022/05/15 01:49:27;;;;;;;4.53;2.10;;;;;;;14.14;59.35;98993.63;4485300;31;20081;-71
2022/05/15 01:51:55;;;;;;;4.22;2.15;;;;;;;14.11;59.58;99004.47;4484802;31;20115;-71
2022/05/15 01:54:22;;;;;;;3.30;2.20;;;;;;;14.05;59.81;98989.28;4485460;31;20097;-71
2022/05/15 01:56:49;;;;;;;4.53;1.73;;;;;;;14.01;59.81;98994.87;4485045;31;20096;-71
2022/05/15 01:59:17;;;;;;;2.78;1.80;;;;;;;14.04;59.78;98996.38;4485446;31;20122;-71
2022/05/15 02:01:45;;;;;;;5.87;2.40;;;;;;;13.99;60.05;99002.13;4484839;32;20114;-71
2022/05/15 02:04:12;;;;;;;5.28;1.83;;;;;;;13.93;60.41;98992.19;4485119;31;20568;-71
2022/05/15 02:06:39;;;;;;;6.37;2.30;;;;;;;13.88;60.56;98994.44;4484833;32;20099;-71
2022/05/15 02:09:07;;;;;;;3.25;1.90;;;;;;;13.83;60.71;99001.97;4484884;31;20217;-71
2022/05/15 02:11:37;;;;;;;4.25;2.10;;;;;;;13.82;60.75;98995.91;4485132;31;20089;-71
2022/05/15 02:14:05;;;;;;;8.30;3.00;;;;;;;13.76;61.00;98993.03;4484758;31;20093;-71
2022/05/15 02:16:34;;;;;;;3.85;1.70;;;;;;;13.70;61.37;98991.00;4485082;31;20096;-71
2022/05/15 02:19:01;;;;;;;4.05;2.10;;;;;;;13.67;61.59;98986.87;4484619;31;20133;-71
2022/05/15 02:21:29;;;;;;;6.68;1.80;;;;;;;13.66;61.50;98988.69;4484826;31;20092;-71
2022/05/15 02:23:57;;;;;;;3.58;1.87;;;;;;;13.62;61.71;98989.94;4484675;31;20092;-71
2022/05/15 02:26:24;;;;;;;4.72;1.90;;;;;;;13.56;61.98;98980.03;4483524;32;20406;-71
2022/05/15 02:28:52;;;;;;;2.65;2.10;;;;;;;13.53;62.20;98985.59;4484771;31;20097;-71
2022/05/15 02:31:19;;;;;;;3.58;1.95;;;;;;;13.59;61.91;98984.16;4484647;32;20176;-71
2022/05/15 02:33:46;;;;;;;5.97;1.75;;;;;;;13.53;62.23;98990.84;4484645;31;20106;-71
2022/05/15 02:36:14;;;;;;;4.20;1.62;;;;;;;13.48;62.35;98987.87;4484657;31;20593;-71
2022/05/15 02:38:41;;;;;;;4.93;1.90;;;;;;;13.42;63.11;98980.56;4484516;31;20210;-71
2022/05/15 02:41:08;;;;;;;4.72;2.00;;;;;;;13.32;63.70;98994.59;4484601;32;20126;-71
2022/05/15 02:43:35;;;;;;;2.80;1.90;;;;;;;13.26;63.80;99000.47;4484568;31;20161;-71
2022/05/15 02:46:03;;;;;;;5.50;1.60;;;;;;;13.26;63.73;98995.19;4484518;31;20118;-71
2022/05/15 02:51:16;;;;;;;7.55;2.03;;;;;;;13.23;64.04;99011.28;4484603;32;20084;-71
2022/05/15 02:53:45;;;;;;;1.85;1.52;;;;;;;13.20;64.41;99008.94;4484505;31;20608;-71
2022/05/15 02:56:20;;;;;;;6.37;2.15;;;;;;;13.14;64.78;99012.97;4484541;31;20139;-71
2022/05/15 02:58:48;;;;;;;5.50;2.12;;;;;;;13.06;65.18;99006.78;4483393;32;20141;-71
2022/05/15 03:01:16;;;;;;;5.10;2.22;;;;;;;12.98;65.71;99012.78;4484411;31;20146;-71
2022/05/15 03:03:44;;;;;;;3.50;2.08;;;;;;;12.92;66.06;99011.56;4484497;31;20096;-71
2022/05/15 03:06:13;;;;;;;2.30;2.10;;;;;;;12.86;66.40;99009.53;4484308;31;20502;-71
2022/05/15 03:08:43;;;;;;;3.50;2.08;;;;;;;12.80;66.69;99002.22;4484287;31;20157;-71
2022/05/15 03:11:10;;;;;;;5.65;2.17;;;;;;;12.80;66.65;99004.84;4484505;31;20147;-71
2022/05/15 03:13:38;;;;;;;5.22;2.33;;;;;;;12.90;66.26;99005.63;4484373;31;20111;-71
2022/05/15 03:16:06;;;;;;;5.15;2.30;;;;;;;13.01;65.60;99009.87;4483976;32;20410;-71
2022/05/15 03:18:41;;;;;;;6.18;2.30;;;;;;;13.13;65.24;99016.56;4484068;31;20100;-71
2022/05/15 03:21:10;;;;;;;3.60;1.95;;;;;;;13.16;65.29;99014.62;4484029;31;20456;-71
2022/05/15 03:23:37;;;;;;;3.62;2.40;;;;;;;13.06;65.75;99025.22;4483751;31;20096;-71
2022/05/15 03:26:04;;;;;;;4.75;2.03;;;;;;;12.98;66.34;99022.50;4483702;31;20389;-71
2022/05/15 03:28:32;;;;;;;3.40;2.25;;;;;;;12.93;66.51;99031.63;4483917;31;20100;-71
2022/05/15 03:30:59;;;;;;;6.45;2.40;;;;;;;12.93;66.27;99026.37;4484881;32;20442;-71
2022/05/15 03:33:26;;;;;;;5.22;2.25;;;;;;;13.07;65.83;99025.06;4485734;32;20111;-71
2022/05/15 03:35:53;;;;;;;4.25;2.20;;;;;;;13.10;65.95;99026.59;4486077;31;20064;-71
2022/05/15 03:38:20;;;;;;;3.40;2.00;;;;;;;13.05;66.05;99018.28;4485790;32;20454;-71
2022/05/15 03:40:48;;;;;;;3.15;2.20;;;;;;;12.99;66.32;99013.62;4486228;32;20089;-71
2022/05/15 03:43:15;;;;;;;6.43;2.70;;;;;;;13.00;66.29;99025.78;4486109;31;20104;-71
2022/05/15 03:45:43;;;;;;;8.20;4.03;;;;;;;13.03;66.13;99023.69;4485600;31;20382;-71
2022/05/15 03:48:10;;;;;;;3.78;2.20;;;;;;;13.10;65.80;99022.12;4485998;31;20639;-71
2022/05/15 03:50:38;;;;;;;4.15;1.98;;;;;;;13.22;65.22;99029.84;4486010;31;20093;-71
2022/05/15 03:53:05;;;;;;;4.53;2.40;;;;;;;13.26;65.06;99031.19;4485933;31;20092;-71
2022/05/15 03:55:32;;;;;;;6.20;2.30;;;;;;;13.24;65.68;99031.31;4485801;31;20104;-71
2022/05/15 03:57:59;;;;;;;2.80;1.92;;;;;;;13.22;66.02;99025.41;4485644;31;20129;-71
2022/05/15 04:00:28;;;;;;;9.38;2.25;;;;;;;13.25;66.04;99040.87;4485794;31;20104;-71
2022/05/15 04:02:56;;;;;;;5.85;2.50;;;;;;;13.25;66.09;99035.63;4485993;31;20105;-71
2022/05/15 04:05:23;;;;;;;6.57;2.62;;;;;;;13.24;66.55;99038.41;4485836;31;20128;-71
2022/05/15 04:07:50;;;;;;;5.18;2.65;;;;;;;13.22;67.08;99046.44;4485902;31;20108;-71
2022/05/15 04:10:21;;;;;;;4.43;2.35;;;;;;;13.25;67.28;99045.34;4485659;32;20093;-71
2022/05/15 04:12:48;;;;;;;6.22;2.40;;;;;;;13.30;67.19;99049.16;4485821;32;20109;-71
2022/05/15 04:15:16;;;;;;;4.00;2.17;;;;;;;13.40;66.92;99054.41;4485649;31;20511;-72
2022/05/15 04:17:46;;;;;;;4.65;2.15;;;;;;;13.53;67.26;99048.75;4485659;31;20591;-72
2022/05/15 04:20:16;;;;;;;9.73;2.35;;;;;;;13.69;67.57;99048.09;4485988;31;20421;-71
2022/05/15 04:22:44;;;;;;;7.87;2.83;;;;;;;13.85;66.95;99060.59;4485506;31;20077;-71
2022/05/15 04:25:12;;;;;;;8.73;2.72;;;;;;;14.07;66.07;99058.47;4485541;31;20169;-72
2022/05/15 04:27:41;;;;;;;7.53;2.60;;;;;;;14.24;65.16;99062.87;4485686;31;20104;-72
2022/05/15 04:30:11;;;;;;;5.35;2.65;;;;;;;14.40;64.89;99058.69;4485376;31;20378;-71
2022/05/15 04:32:39;;;;;;;8.68;2.45;;;;;;;14.53;64.98;99061.75;4485695;31;20548;-72
2022/05/15 04:35:06;;;;;;;3.40;2.70;;;;;;;14.72;64.60;99061.56;4485757;31;20092;-71
2022/05/15 04:37:34;;;;;;;5.22;2.22;;;;;;;14.84;64.64;99063.97;4485631;31;20104;-72
2022/05/15 04:40:01;;;;;;;5.78;2.45;;;;;;;14.96;63.36;99065.34;4485771;31;20115;-71
2022/05/15 04:42:30;;;;;;;7.30;2.60;;;;;;;15.16;62.85;99062.44;4485534;31;20400;-72
2022/05/15 04:44:58;;;;;;;4.10;2.28;;;;;;;15.31;63.60;99066.13;4485308;32;20103;-72
2022/05/15 04:47:25;;;;;;;4.40;2.35;;;;;;;15.48;61.40;99069.63;4485277;31;20088;-72
2022/05/15 04:49:52;;;;;;;3.78;2.40;;;;;;;15.67;60.56;99062.41;4485485;31;20164;-72
2022/05/15 04:52:19;;;;;;;7.10;2.72;;;;;;;15.87;60.09;99070.91;4485339;31;20096;-72
2022/05/15 04:54:46;;;;;;;7.62;2.58;;;;;;;16.03;60.18;99072.72;4485198;31;20091;-72
2022/05/15 04:57:14;;;;;;;2.92;2.10;;;;;;;16.21;59.62;99075.19;4485513;31;20155;-72
2022/05/15 04:59:41;;;;;;;5.03;2.10;;;;;;;16.37;59.17;99071.72;4485229;31;20100;-72
2022/05/15 05:02:08;;;;;;;5.03;2.17;;;;;;;16.53;58.25;99076.16;4485359;31;20096;-72
2022/05/15 05:04:35;;;;;;;5.12;2.30;;;;;;;16.67;57.74;99075.47;4485302;31;20088;-72
2022/05/15 05:07:03;;;;;;;8.05;2.17;;;;;;;16.88;57.30;99082.06;4485277;31;20560;-72
2022/05/15 05:09:30;;;;;;;6.07;1.75;;;;;;;17.08;56.80;99085.13;4485343;31;20134;-72
2022/05/15 05:11:57;;;;;;;6.28;2.30;;;;;;;17.15;56.53;99078.16;4485247;31;20131;-72
2022/05/15 05:14:24;;;;;;;8.48;2.20;;;;;;;17.14;57.58;99087.94;4485148;31;20112;-72
2022/05/15 05:16:51;;;;;;;2.83;1.52;;;;;;;17.29;58.59;99081.88;4485295;31;20118;-72
2022/05/15 05:19:18;;;;;;;3.25;1.65;;;;;;;17.33;58.70;99085.84;4485326;31;20119;-72
2022/05/15 05:21:46;;;;;;;5.53;1.90;;;;;;;17.48;55.04;99085.94;4485069;31;20107;-72
2022/05/15 05:24:13;;;;;;;3.12;1.80;;;;;;;17.61;54.50;99082.72;4485179;31;20100;-72
2022/05/15 05:26:40;;;;;;;2.95;1.55;;;;;;;17.37;53.77;99082.69;4485413;31;20442;-72
2022/05/15 05:29:08;;;;;;;4.00;1.77;;;;;;;17.42;52.85;99079.50;4484900;32;20092;-72
2022/05/15 05:31:35;;;;;;;5.30;1.80;;;;;;;17.46;52.49;99087.94;4485278;31;20133;-72
2022/05/15 05:34:02;;;;;;;3.12;1.60;;;;;;;17.69;52.49;99093.28;4485050;31;20775;-72
2022/05/15 05:36:30;;;;;;;5.07;1.77;;;;;;;17.75;51.06;99092.56;4485239;31;20470;-72
2022/05/15 05:38:58;;;;;;;5.32;2.03;;;;;;;17.83;51.74;99097.81;4485059;31;20092;-72
2022/05/15 05:41:25;;;;;;;4.87;1.87;;;;;;;17.85;50.35;99097.62;4485076;31;20116;-72
2022/05/15 05:43:52;;;;;;;6.20;1.90;;;;;;;17.84;51.54;99098.66;4485088;31;20161;-72
2022/05/15 05:46:21;;;;;;;5.22;1.98;;;;;;;18.13;50.19;99100.63;4484918;31;20561;-72
2022/05/15 05:48:49;;;;;;;3.80;1.67;;;;;;;18.20;50.02;99098.09;4485041;32;20164;-72
2022/05/15 05:51:16;;;;;;;3.35;1.52;;;;;;;18.41;48.70;99098.25;4484896;31;20127;-72
2022/05/15 05:53:43;;;;;;;3.70;1.45;;;;;;;18.57;47.34;99097.25;4484037;31;20137;-72
2022/05/15 05:56:10;;;;;;;2.33;1.30;;;;;;;18.84;46.78;99102.97;4485053;31;20160;-72
2022/05/15 05:58:38;;;;;;;4.80;1.62;;;;;;;19.02;46.38;99099.16;4484845;31;20096;-72
2022/05/15 06:01:05;;;;;;;3.75;1.48;;;;;;;19.04;45.65;99103.25;4484886;31;20134;-72
2022/05/15 06:06:18;;;;;;;4.53;1.30;;;;;;;19.03;46.14;99100.78;4484960;32;20092;-72
2022/05/15 06:08:46;;;;;;;3.08;1.42;;;;;;;19.04;45.95;99102.44;4484900;31;20160;-72
2022/05/15 06:11:13;;;;;;;5.43;1.60;;;;;;;19.06;45.82;99103.91;4484572;31;20101;-72
2022/05/15 06:13:40;;;;;;;2.55;1.45;;;;;;;19.15;44.82;99104.63;4484879;31;20104;-72
2022/05/15 06:16:08;;;;;;;4.15;1.37;;;;;;;19.13;43.16;99109.31;4485009;31;20425;-72
2022/05/15 06:18:36;;;;;;;4.65;1.58;;;;;;;19.21;43.74;99106.53;4485005;31;20096;-72
2022/05/15 06:21:03;;;;;;;4.35;1.40;;;;;;;19.29;42.49;99101.13;4484633;31;20147;-72
2022/05/15 06:23:30;;;;;;;6.12;1.60;;;;;;;19.37;42.42;99108.19;4484677;31;20465;-72
2022/05/15 06:25:58;;;;;;;2.25;1.20;;;;;;;19.52;42.12;99110.00;4484762;32;20641;-72
2022/05/15 06:28:25;;;;;;;4.28;1.95;;;;;;;19.59;42.35;99114.38;4483431;32;20115;-72
2022/05/15 06:30:52;;;;;;;6.07;1.42;;;;;;;19.66;41.83;99107.28;4484542;31;20127;-72
2022/05/15 06:33:19;;;;;;;3.08;1.35;;;;;;;19.75;41.86;99113.31;4484833;32;20104;-72
2022/05/15 06:35:46;;;;;;;2.25;1.30;;;;;;;19.84;41.31;99109.56;4484516;31;20165;-72
2022/05/15 06:38:14;;;;;;;2.65;1.62;;;;;;;19.89;41.11;99106.31;4484769;31;20541;-72
2022/05/15 06:40:41;;;;;;;4.30;1.25;;;;;;;20.04;41.46;99108.94;4484557;31;20099;-72
2022/05/15 06:43:09;;;;;;;3.47;2.20;;;;;;;20.03;41.69;99108.13;4484582;31;20100;-72
2022/05/15 06:45:36;;;;;;;4.22;1.20;;;;;;;20.10;42.10;99107.34;4484534;31;20087;-72
2022/05/15 06:48:04;;;;;;;3.70;1.30;;;;;;;20.23;41.61;99112.78;4484516;31;20092;-72
2022/05/15 06:50:31;;;;;;;3.60;1.35;;;;;;;20.20;42.10;99105.19;4484356;31;20119;-72
2022/05/15 06:52:58;;;;;;;3.45;1.30;;;;;;;20.19;40.74;99109.69;4484277;32;20523;-72
2022/05/15 06:55:26;;;;;;;3.83;1.67;;;;;;;20.09;40.69;99116.34;4484632;31;20442;-72
2022/05/15 06:57:53;;;;;;;4.43;1.33;;;;;;;20.27;41.52;99116.69;4484558;31;20084;-72
2022/05/15 07:00:25;;;;;;;2.53;1.62;;;;;;;20.26;40.05;99111.56;4484401;32;20096;-72
2022/05/15 07:02:52;;;;;;;4.70;1.40;;;;;;;20.41;41.80;99120.31;4484314;31;20088;-72
2022/05/15 07:05:30;;;;;;;3.67;1.50;;;;;;;20.55;41.22;99110.59;4484756;32;20167;-72
2022/05/15 07:07:58;;;;;;;3.60;1.58;;;;;;;20.71;42.28;99114.81;4486156;31;20127;-72
2022/05/15 07:10:25;;;;;;;3.90;1.30;;;;;;;20.60;41.89;99104.69;4486120;31;20093;-72
2022/05/15 07:12:52;;;;;;;2.72;1.33;;;;;;;20.54;41.44;99108.94;4486072;31;20142;-72
2022/05/15 07:15:20;;;;;;;2.75;1.48;;;;;;;20.67;41.53;99122.38;4486141;32;20567;-72
2022/05/15 07:17:47;;;;;;;4.45;1.80;;;;;;;20.77;41.18;99113.22;4486136;31;20793;-72
2022/05/15 07:20:14;;;;;;;5.93;1.50;;;;;;;21.00;40.88;99118.28;4485921;31;20509;-72
2022/05/15 07:22:42;;;;;;;2.80;1.60;;;;;;;21.06;40.08;99107.69;4485575;32;20165;-72
2022/05/15 07:25:10;;;;;;;4.57;1.40;;;;;;;21.20;38.80;99105.91;4485977;31;20096;-72
2022/05/15 07:27:37;;;;;;;2.97;1.30;;;;;;;21.14;39.12;99113.88;4485915;31;20520;-72
2022/05/15 07:30:05;;;;;;;3.62;1.30;;;;;;;21.19;37.47;99112.22;4485829;31;20088;-72
2022/05/15 07:32:32;;;;;;;3.25;1.35;;;;;;;21.09;38.79;99115.28;4485986;31;20096;-72
2022/05/15 07:34:59;;;;;;;3.28;1.58;;;;;;;21.33;37.81;99112.31;4486096;31;20092;-72
2022/05/15 07:37:27;;;;;;;1.52;1.10;;;;;;;21.15;36.25;99115.50;4486064;31;20131;-72
2022/05/15 07:39:54;;;;;;;4.68;2.40;;;;;;;21.22;37.46;99108.38;4486049;31;20112;-72
2022/05/15 07:42:21;;;;;;;2.58;1.42;;;;;;;21.26;38.92;99109.63;4485861;31;20563;-72
2022/05/15 07:44:49;;;;;;;3.40;1.70;;;;;;;21.22;39.39;99117.16;4485915;32;20426;-72
2022/05/15 07:47:16;;;;;;;3.08;1.58;;;;;;;21.44;38.19;99115.22;4486067;31;20080;-72
2022/05/15 07:49:44;;;;;;;4.80;2.00;;;;;;;21.47;36.61;99116.69;4486011;31;20096;-72
2022/05/15 07:52:11;;;;;;;3.75;1.30;;;;;;;21.40;38.29;99116.63;4485594;31;20112;-72
2022/05/15 07:54:38;;;;;;;3.12;1.50;;;;;;;21.56;39.07;99114.66;4486101;31;20142;-72
2022/05/15 07:57:06;;;;;;;2.47;1.30;;;;;;;21.50;39.72;99110.97;4485721;31;20119;-72
2022/05/15 07:59:34;;;;;;;5.15;1.42;;;;;;;21.58;37.12;99109.97;4485810;31;20092;-72
2022/05/15 08:02:06;;;;;;;5.85;1.70;;;;;;;21.50;37.76;99115.47;4485868;31;20441;-72
2022/05/15 08:08:00;;;;;;;5.20;1.80;;;;;;;21.41;38.61;99114.81;4485868;31;20208;-72
2022/05/15 08:10:10;;;;;;;3.65;1.40;;;;;;;21.78;40.20;99113.50;4485900;31;20095;-72
2022/05/15 08:12:37;;;;;;;3.40;1.30;;;;;;;21.77;38.27;99119.03;4485560;31;20116;-72
2022/05/15 08:15:06;;;;;;;3.85;1.60;;;;;;;21.76;37.31;99120.91;4485712;31;20101;-72
2022/05/15 08:17:34;;;;;;;4.10;1.60;;;;;;;21.82;39.73;99110.44;4485576;31;20437;-72
2022/05/15 08:25:33;;;;;;;6.68;1.70;;;;;;;21.99;37.44;99119.72;4485754;31;20084;-72
2022/05/15 08:28:00;;;;;;;2.12;1.50;;;;;;;21.83;38.67;99112.91;4485615;31;20148;-72
2022/05/15 08:30:27;;;;;;;6.15;1.73;;;;;;;21.90;39.50;99112.94;4485484;31;20115;-72
2022/05/15 08:32:54;;;;;;;2.15;1.50;;;;;;;22.06;38.66;99117.87;4485595;31;20097;-72
2022/05/15 08:35:22;;;;;;;1.92;1.60;;;;;;;22.14;39.02;99125.69;4485640;32;20261;-72
2022/05/15 08:37:49;;;;;;;5.87;1.42;;;;;;;22.18;38.76;99122.59;4485573;31;20092;-72
2022/05/15 08:40:25;;;;;;;2.95;1.40;;;;;;;22.14;36.91;99120.34;4485936;31;20108;-72
2022/05/15 08:42:56;;;;;;;2.58;1.40;;;;;;;22.44;38.89;99125.31;4485456;31;20410;-72
2022/05/15 08:45:26;;;;;;;6.85;1.50;;;;;;;22.37;35.64;99119.16;4485532;31;20144;-72
2022/05/15 08:48:12;;;;;;;3.92;1.25;;;;;;;22.43;35.67;99118.34;4483956;32;20100;-72
2022/05/15 08:50:49;;;;;;;2.60;1.20;;;;;;;22.54;37.92;99129.44;4484274;32;20115;-72
2022/05/15 08:53:31;;;;;;;3.08;1.30;;;;;;;22.45;36.58;99118.13;4485346;31;20131;-72
2022/05/15 08:56:00;;;;;;;6.47;3.00;;;;;;;22.61;36.35;99127.59;4484265;32;20426;-72
2022/05/15 08:58:35;;;;;;;4.93;1.33;;;;;;;22.55;35.81;99115.06;4485407;31;20525;-72
2022/05/15 09:01:05;;;;;;;2.00;1.30;;;;;;;22.52;35.28;99113.62;4484461;32;20193;-72
2022/05/15 09:03:35;;;;;;;4.18;1.50;;;;;;;22.64;35.70;99125.31;4485293;31;20092;-72
2022/05/15 09:06:24;;;;;;;6.57;1.60;;;;;;;22.73;35.15;99120.59;4485466;31;20088;-72
2022/05/15 09:09:18;;;;;;;3.30;1.40;;;;;;;22.81;34.63;99109.66;4485305;31;20523;-72
2022/05/15 09:11:56;;;;;;;2.00;1.10;;;;;;;22.82;35.04;99108.66;4483933;32;20072;-72
2022/05/15 09:14:45;;;;;;;3.30;1.45;;;;;;;22.85;35.21;99116.25;4485472;31;20096;-72
2022/05/15 09:17:18;;;;;;;2.75;1.30;;;;;;;22.93;34.20;99131.22;4485343;31;20096;-72
2022/05/15 09:19:49;;;;;;;2.47;1.30;;;;;;;22.98;35.56;99111.91;4485347;31;20167;-72
2022/05/15 09:22:17;;;;;;;4.12;1.87;;;;;;;22.92;34.52;99112.72;4483708;32;20081;-72
2022/05/15 09:24:51;;;;;;;5.57;1.27;;;;;;;23.12;35.14;99124.25;4484051;32;20139;-72
2022/05/15 09:27:24;;;;;;;3.55;1.42;;;;;;;23.09;33.66;99113.97;4485194;31;20092;-72
2022/05/15 09:29:56;;;;;;;5.32;1.35;;;;;;;22.98;34.02;99115.41;4484782;31;20089;-72
2022/05/15 09:32:40;;;;;;;3.55;1.62;;;;;;;23.09;33.09;99116.63;4469662;32;20089;-72
2022/05/15 09:35:26;;;;;;;;;;;;;;;23.19;33.56;99113.50;4469906;32;20081;-72
2022/05/15 09:43:54;;;;;;;2.95;1.20;;;;;;;23.33;34.05;99116.94;4469379;32;20130;-72
2022/05/15 09:46:25;;;;;;;1.80;1.10;;;;;;;23.34;34.28;99110.59;4469660;32;20115;-72
2022/05/15 09:49:01;;;;;;;2.65;1.48;;;;;;;23.56;33.22;99111.13;4468030;32;20160;-72
2022/05/15 09:51:49;;;;;;;2.42;1.25;;;;;;;23.66;32.69;99102.63;4468161;32;20076;-72
2022/05/15 09:54:34;;;;;;;3.87;1.42;;;;;;;23.64;34.64;99099.34;4469389;32;20072;-72
2022/05/15 09:57:24;;;;;;;3.22;1.40;;;;;;;23.48;35.38;99112.19;4469368;32;20089;-72
2022/05/15 09:59:58;;;;;;;3.30;1.37;;;;;;;23.43;34.46;99106.63;4469359;32;20081;-72
2022/05/15 10:02:40;;;;;;;;;;;;;;;23.48;33.85;99098.81;4469652;32;20146;-72
2022/05/15 10:05:14;;;;;;;2.90;1.70;;;;;;;23.55;33.69;99104.94;4469433;32;20042;-72
2022/05/15 10:07:46;;;;;;;2.97;1.33;;;;;;;23.73;33.58;99098.88;4469363;32;20355;-72
2022/05/15 10:10:23;;;;;;;3.70;1.35;;;;;;;24.29;35.46;99103.69;4468233;32;20520;-72
2022/05/15 10:12:54;;;;;;;9.68;1.58;;;;;;;24.21;35.12;99102.06;4469104;32;20448;-72
2022/05/15 10:15:24;;;;;;;5.07;1.30;;;;;;;24.30;32.47;99089.25;4469252;32;20077;-72
2022/05/15 10:17:54;;;;;;;3.85;1.50;;;;;;;23.89;32.64;99086.03;4469517;32;20123;-72
2022/05/15 10:20:30;;;;;;;3.37;1.45;;;;;;;23.76;34.04;99089.59;4469627;32;20131;-72
2022/05/15 10:23:01;;;;;;;3.03;1.60;;;;;;;24.02;34.19;99090.50;4468903;32;20108;-72
2022/05/15 10:25:40;;;;;;;8.05;1.48;;;;;;;24.09;34.13;99096.63;4469501;32;20402;-72
2022/05/15 10:28:41;;;;;;;3.58;1.42;;;;;;;24.03;32.37;99089.47;4469086;32;20093;-72
2022/05/15 10:31:19;;;;;;;5.85;1.48;;;;;;;23.90;32.83;99093.03;4477075;32;20158;-72
2022/05/15 10:33:53;;;;;;;4.18;1.35;;;;;;;24.05;33.82;99082.03;4483432;32;20087;-72
2022/05/15 10:36:24;;;;;;;6.07;1.12;;;;;;;23.95;33.42;99082.50;4483688;32;20080;-72
2022/05/15 10:38:58;;;;;;;7.60;1.90;;;;;;;23.73;32.27;99082.00;4484490;31;20137;-72
2022/05/15 10:41:37;;;;;;;4.32;1.45;;;;;;;23.97;33.84;99074.25;4484814;31;20088;-72
2022/05/15 10:44:21;;;;;;;2.30;1.30;;;;;;;24.30;33.77;99078.53;4484517;31;20112;-72
2022/05/15 10:47:12;;;;;;;4.22;1.55;;;;;;;24.28;32.87;99073.38;4484592;31;20509;-72
2022/05/15 10:49:49;;;;;;;3.58;1.37;;;;;;;24.54;32.36;99069.69;4480462;32;20092;-72
2022/05/15 10:52:42;;;;;;;4.93;1.23;;;;;;;24.51;33.05;99075.47;4484341;31;20134;-72
2022/05/15 10:58:40;;;;;;;2.37;1.52;;;;;;;24.46;33.38;99077.97;4484592;31;20111;-72
2022/05/15 11:01:18;;;;;;;8.65;1.60;;;;;;;24.64;32.47;99071.06;4450722;32;20120;-72
2022/05/15 11:03:55;;;;;;;2.58;1.20;;;;;;;25.06;31.46;99057.81;4437723;32;20128;-72
2022/05/15 11:06:47;;;;;;;3.67;1.40;;;;;;;24.98;31.64;99057.06;4450677;32;20114;-72
2022/05/15 11:09:52;;;;;;;3.50;1.30;;;;;;;24.98;32.24;99064.28;4442745;32;20172;-72
2022/05/15 11:12:51;;;;;;;3.75;1.20;;;;;;;24.69;31.03;99066.66;4450433;32;20129;-72
2022/05/15 11:15:31;;;;;;;3.33;1.12;;;;;;;24.84;30.12;99052.09;4437939;32;20319;-72
2022/05/15 11:18:36;;;;;;;3.78;1.40;;;;;;;24.78;31.59;99059.16;4450588;32;20084;-72
2022/05/15 11:21:11;;;;;;;4.07;1.27;;;;;;;25.06;32.69;99053.25;4389066;32;20137;-72
2022/05/15 11:24:01;;;;;;;4.82;1.30;;;;;;;24.80;31.79;99057.88;4389251;32;20703;-72
2022/05/15 11:26:34;;;;;;;3.97;1.60;;;;;;;24.47;32.77;99052.00;4389382;32;20165;-72
2022/05/15 11:29:20;;;;;;;3.25;1.50;;;;;;;24.91;32.19;99050.97;4388861;32;20102;-72
2022/05/15 11:31:55;;;;;;;4.70;1.30;;;;;;;24.79;31.81;99042.03;4377629;32;20186;-72
2022/05/15 11:35:01;;;;;;;4.45;1.30;;;;;;;24.94;31.39;99042.47;4374303;32;20122;-72
2022/05/15 11:37:37;;;;;;;2.10;1.20;;;;;;;25.28;31.56;99032.13;4348328;32;20126;-72
2022/05/15 11:40:11;;;;;;;2.55;1.30;;;;;;;25.41;32.07;99043.78;4373954;32;20122;-72
2022/05/15 11:42:40;;;;;;;1.85;1.20;;;;;;;25.54;32.05;99043.59;4373876;32;20563;-72
2022/05/15 11:45:30;;;;;;;3.40;1.42;;;;;;;25.51;31.52;99033.31;4373692;32;20111;-72
2022/05/15 11:48:19;;;;;;;5.05;1.48;;;;;;;25.62;30.44;99021.00;4373817;32;20544;-72
2022/05/15 11:50:55;;;;;;;4.28;1.50;;;;;;;25.54;31.36;99024.00;4373993;32;20095;-72
2022/05/15 11:53:29;;;;;;;3.92;1.50;;;;;;;24.97;32.09;99031.31;4376221;32;20095;-72
2022/05/15 11:55:58;;;;;;;1.92;1.42;;;;;;;24.49;33.03;99039.22;4375514;32;20127;-72
2022/05/15 11:58:34;;;;;;;3.20;1.37;;;;;;;24.30;33.69;99039.22;4452350;32;20494;-72
2022/05/15 12:01:11;;;;;;;4.03;1.30;;;;;;;24.70;32.27;99036.16;4439596;32;20093;-72
2022/05/15 12:03:38;;;;;;;1.20;1.10;;;;;;;25.08;31.18;99021.69;4439639;32;20184;-72
2022/05/15 12:06:14;;;;;;;3.95;1.42;;;;;;;25.25;30.71;99021.88;4452238;32;20428;-72
2022/05/15 12:08:42;;;;;;;3.30;1.50;;;;;;;24.83;31.18;99021.81;4439366;32;20188;-72
2022/05/15 12:11:18;;;;;;;1.95;1.15;;;;;;;25.22;31.38;99013.47;4452023;32;20128;-72
2022/05/15 12:13:46;;;;;;;3.83;1.50;;;;;;;25.37;33.01;99021.16;4456384;32;20111;-73
2022/05/15 12:16:23;;;;;;;1.65;1.17;;;;;;;25.31;29.62;99021.03;4468781;32;20143;-72